sensor_id;sensor_type;location;lat;lon;timestamp;P1;durP1;ratioP1;P2;durP2;ratioP2
58842;SDS011;44614;54.356;10.100;2022-11-20T00:00:56;10.07;;;3.38;;
58842;SDS011;44614;54.356;10.100;2022-11-20T00:03:22;6.10;;;3.90;;
58842;SDS011;44614;54.356;10.100;2022-11-20T00:05:47;6.22;;;3.30;;
58842;SDS011;44614;54.356;10.100;2022-11-20T00:08:13;4.65;;;3.17;;
58842;SDS011;44614;54.356;10.100;2022-11-20T00:10:38;6.13;;;3.37;;
58842;SDS011;44614;54.356;10.100;2022-11-20T00:13:04;4.97;;;2.58;;
58842;SDS011;44614;54.356;10.100;2022-11-20T00:15:30;5.30;;;2.80;;
58842;SDS011;44614;54.356;10.100;2022-11-20T00:17:56;4.05;;;2.35;;
58842;SDS011;44614;54.356;10.100;2022-11-20T00:20:21;6.28;;;3.33;;
58842;SDS011;44614;54.356;10.100;2022-11-20T00:22:47;5.50;;;2.30;;
58842;SDS011;44614;54.356;10.100;2022-11-20T00:25:12;2.55;;;1.65;;
58842;SDS011;44614;54.356;10.100;2022-11-20T00:27:38;5.75;;;2.72;;
58842;SDS011;44614;54.356;10.100;2022-11-20T00:30:04;3.60;;;2.20;;
58842;SDS011;44614;54.356;10.100;2022-11-20T00:32:30;5.00;;;2.55;;
58842;SDS011;44614;54.356;10.100;2022-11-20T00:34:55;4.32;;;2.42;;
58842;SDS011;44614;54.356;10.100;2022-11-20T00:37:21;6.18;;;1.90;;
58842;SDS011;44614;54.356;10.100;2022-11-20T00:39:46;4.75;;;2.15;;
58842;SDS011;44614;54.356;10.100;2022-11-20T00:42:12;3.55;;;2.40;;
58842;SDS011;44614;54.356;10.100;2022-11-20T00:44:37;4.40;;;2.22;;
58842;SDS011;44614;54.356;10.100;2022-11-20T00:47:03;5.40;;;2.38;;
58842;SDS011;44614;54.356;10.100;2022-11-20T00:49:28;4.05;;;2.25;;
58842;SDS011;44614;54.356;10.100;2022-11-20T00:51:53;6.75;;;3.17;;
58842;SDS011;44614;54.356;10.100;2022-11-20T00:54:19;3.53;;;2.03;;
58842;SDS011;44614;54.356;10.100;2022-11-20T00:56:44;6.30;;;2.50;;
58842;SDS011;44614;54.356;10.100;2022-11-20T00:59:09;3.25;;;2.13;;
58842;SDS011;44614;54.356;10.100;2022-11-20T01:01:35;7.00;;;2.97;;
58842;SDS011;44614;54.356;10.100;2022-11-20T01:04:02;4.53;;;2.38;;
58842;SDS011;44614;54.356;10.100;2022-11-20T01:06:29;6.68;;;2.85;;
58842;SDS011;44614;54.356;10.100;2022-11-20T01:08:59;12.25;;;4.78;;
58842;SDS011;44614;54.356;10.100;2022-11-20T01:11:28;9.45;;;4.18;;
58842;SDS011;44614;54.356;10.100;2022-11-20T01:13:55;13.00;;;5.30;;
58842;SDS011;44614;54.356;10.100;2022-11-20T01:16:22;11.57;;;4.40;;
58842;SDS011;44614;54.356;10.100;2022-11-20T01:18:53;15.63;;;5.57;;
58842;SDS011;44614;54.356;10.100;2022-11-20T01:21:25;6.65;;;3.33;;
58842;SDS011;44614;54.356;10.100;2022-11-20T01:23:51;8.05;;;3.35;;
58842;SDS011;44614;54.356;10.100;2022-11-20T01:26:19;6.95;;;4.05;;
58842;SDS011;44614;54.356;10.100;2022-11-20T01:28:46;8.20;;;3.50;;
58842;SDS011;44614;54.356;10.100;2022-11-20T01:33:49;6.28;;;3.17;;
58842;SDS011;44614;54.356;10.100;2022-11-20T01:36:16;5.20;;;2.75;;
58842;SDS011;44614;54.356;10.100;2022-11-20T01:38:42;7.65;;;3.20;;
58842;SDS011;44614;54.356;10.100;2022-11-20T01:41:09;4.85;;;2.60;;
58842;SDS011;44614;54.356;10.100;2022-11-20T01:43:36;5.95;;;2.80;;
58842;SDS011;44614;54.356;10.100;2022-11-20T01:46:17;4.63;;;2.20;;
58842;SDS011;44614;54.356;10.100;2022-11-20T01:54:15;6.13;;;2.45;;
58842;SDS011;44614;54.356;10.100;2022-11-20T01:56:47;3.13;;;1.80;;
58842;SDS011;44614;54.356;10.100;2022-11-20T01:59:17;6.35;;;2.55;;
58842;SDS011;44614;54.356;10.100;2022-11-20T02:01:44;5.55;;;2.88;;
58842;SDS011;44614;54.356;10.100;2022-11-20T02:04:10;4.63;;;2.20;;
58842;SDS011;44614;54.356;10.100;2022-11-20T02:06:42;4.18;;;1.95;;
58842;SDS011;44614;54.356;10.100;2022-11-20T02:09:11;4.75;;;2.05;;
58842;SDS011;44614;54.356;10.100;2022-11-20T02:11:36;4.10;;;2.50;;
58842;SDS011;44614;54.356;10.100;2022-11-20T02:14:02;5.45;;;2.92;;
58842;SDS011;44614;54.356;10.100;2022-11-20T02:16:33;6.15;;;3.22;;
58842;SDS011;44614;54.356;10.100;2022-11-20T02:19:01;4.90;;;3.03;;
58842;SDS011;44614;54.356;10.100;2022-11-20T02:24:14;3.90;;;1.92;;
58842;SDS011;44614;54.356;10.100;2022-11-20T02:29:27;2.85;;;2.40;;
58842;SDS011;44614;54.356;10.100;2022-11-20T02:31:54;3.67;;;2.22;;
58842;SDS011;44614;54.356;10.100;2022-11-20T02:36:47;4.77;;;1.60;;
58842;SDS011;44614;54.356;10.100;2022-11-20T02:39:14;6.72;;;2.90;;
58842;SDS011;44614;54.356;10.100;2022-11-20T02:41:41;4.03;;;2.03;;
58842;SDS011;44614;54.356;10.100;2022-11-20T02:44:07;6.13;;;2.33;;
58842;SDS011;44614;54.356;10.100;2022-11-20T02:46:33;3.20;;;1.92;;
58842;SDS011;44614;54.356;10.100;2022-11-20T02:48:59;5.80;;;2.00;;
58842;SDS011;44614;54.356;10.100;2022-11-20T02:51:26;4.32;;;2.45;;
58842;SDS011;44614;54.356;10.100;2022-11-20T02:53:51;5.65;;;2.20;;
58842;SDS011;44614;54.356;10.100;2022-11-20T02:56:16;4.77;;;2.00;;
58842;SDS011;44614;54.356;10.100;2022-11-20T02:58:42;5.70;;;2.45;;
58842;SDS011;44614;54.356;10.100;2022-11-20T03:01:07;8.77;;;3.00;;
58842;SDS011;44614;54.356;10.100;2022-11-20T03:03:32;4.40;;;2.83;;
58842;SDS011;44614;54.356;10.100;2022-11-20T03:05:58;3.58;;;2.05;;
58842;SDS011;44614;54.356;10.100;2022-11-20T03:08:24;6.68;;;2.58;;
58842;SDS011;44614;54.356;10.100;2022-11-20T03:10:49;3.45;;;2.03;;
58842;SDS011;44614;54.356;10.100;2022-11-20T03:13:15;3.70;;;2.60;;
58842;SDS011;44614;54.356;10.100;2022-11-20T03:15:40;3.97;;;2.53;;
58842;SDS011;44614;54.356;10.100;2022-11-20T03:18:05;4.22;;;2.22;;
58842;SDS011;44614;54.356;10.100;2022-11-20T03:20:32;4.55;;;2.22;;
58842;SDS011;44614;54.356;10.100;2022-11-20T03:22:57;6.05;;;2.22;;
58842;SDS011;44614;54.356;10.100;2022-11-20T03:25:23;5.53;;;2.00;;
58842;SDS011;44614;54.356;10.100;2022-11-20T03:27:48;4.80;;;2.30;;
58842;SDS011;44614;54.356;10.100;2022-11-20T03:30:14;3.30;;;2.20;;
58842;SDS011;44614;54.356;10.100;2022-11-20T03:32:40;4.45;;;2.45;;
58842;SDS011;44614;54.356;10.100;2022-11-20T03:35:05;3.85;;;1.70;;
58842;SDS011;44614;54.356;10.100;2022-11-20T03:37:31;2.80;;;1.55;;
58842;SDS011;44614;54.356;10.100;2022-11-20T03:39:57;2.97;;;1.60;;
58842;SDS011;44614;54.356;10.100;2022-11-20T03:42:22;3.80;;;1.57;;
58842;SDS011;44614;54.356;10.100;2022-11-20T03:45:06;1.38;;;0.82;;
58842;SDS011;44614;54.356;10.100;2022-11-20T03:47:31;2.13;;;1.45;;
58842;SDS011;44614;54.356;10.100;2022-11-20T03:49:57;1.07;;;0.90;;
58842;SDS011;44614;54.356;10.100;2022-11-20T03:52:22;1.20;;;0.80;;
58842;SDS011;44614;54.356;10.100;2022-11-20T03:54:47;1.77;;;1.27;;
58842;SDS011;44614;54.356;10.100;2022-11-20T03:57:13;0.60;;;0.60;;
58842;SDS011;44614;54.356;10.100;2022-11-20T03:59:38;0.73;;;0.60;;
58842;SDS011;44614;54.356;10.100;2022-11-20T04:02:03;0.40;;;0.40;;
58842;SDS011;44614;54.356;10.100;2022-11-20T04:04:28;1.23;;;0.50;;
58842;SDS011;44614;54.356;10.100;2022-11-20T04:06:54;0.30;;;0.30;;
58842;SDS011;44614;54.356;10.100;2022-11-20T04:09:19;1.00;;;0.60;;
58842;SDS011;44614;54.356;10.100;2022-11-20T04:11:44;0.30;;;0.30;;
58842;SDS011;44614;54.356;10.100;2022-11-20T04:14:13;0.53;;;0.53;;
58842;SDS011;44614;54.356;10.100;2022-11-20T04:16:40;1.20;;;0.57;;
58842;SDS011;44614;54.356;10.100;2022-11-20T04:19:09;0.47;;;0.47;;
58842;SDS011;44614;54.356;10.100;2022-11-20T04:21:36;0.50;;;0.50;;
58842;SDS011;44614;54.356;10.100;2022-11-20T04:24:01;1.45;;;0.40;;
58842;SDS011;44614;54.356;10.100;2022-11-20T04:26:27;0.40;;;0.35;;
58842;SDS011;44614;54.356;10.100;2022-11-20T04:28:54;0.75;;;0.65;;
58842;SDS011;44614;54.356;10.100;2022-11-20T04:31:21;0.50;;;0.50;;
58842;SDS011;44614;54.356;10.100;2022-11-20T04:33:48;1.73;;;0.90;;
58842;SDS011;44614;54.356;10.100;2022-11-20T04:36:18;2.17;;;1.00;;
58842;SDS011;44614;54.356;10.100;2022-11-20T04:38:45;1.88;;;0.80;;
58842;SDS011;44614;54.356;10.100;2022-11-20T04:41:13;0.57;;;0.52;;
58842;SDS011;44614;54.356;10.100;2022-11-20T04:43:41;0.70;;;0.70;;
58842;SDS011;44614;54.356;10.100;2022-11-20T04:46:10;1.27;;;0.50;;
58842;SDS011;44614;54.356;10.100;2022-11-20T04:48:36;0.68;;;0.65;;
58842;SDS011;44614;54.356;10.100;2022-11-20T04:51:04;0.98;;;0.60;;
58842;SDS011;44614;54.356;10.100;2022-11-20T04:53:29;2.20;;;1.30;;
58842;SDS011;44614;54.356;10.100;2022-11-20T04:55:59;1.67;;;1.33;;
58842;SDS011;44614;54.356;10.100;2022-11-20T04:58:25;1.25;;;0.82;;
58842;SDS011;44614;54.356;10.100;2022-11-20T05:00:51;1.98;;;1.23;;
58842;SDS011;44614;54.356;10.100;2022-11-20T05:03:16;1.88;;;1.15;;
58842;SDS011;44614;54.356;10.100;2022-11-20T05:05:42;1.08;;;1.00;;
58842;SDS011;44614;54.356;10.100;2022-11-20T05:08:07;2.97;;;1.43;;
58842;SDS011;44614;54.356;10.100;2022-11-20T05:10:32;2.67;;;1.23;;
58842;SDS011;44614;54.356;10.100;2022-11-20T05:12:57;2.03;;;1.43;;
58842;SDS011;44614;54.356;10.100;2022-11-20T05:15:23;1.50;;;0.97;;
58842;SDS011;44614;54.356;10.100;2022-11-20T05:17:48;2.00;;;1.00;;
58842;SDS011;44614;54.356;10.100;2022-11-20T05:20:15;2.05;;;1.05;;
58842;SDS011;44614;54.356;10.100;2022-11-20T05:22:40;1.40;;;0.82;;
58842;SDS011;44614;54.356;10.100;2022-11-20T05:25:05;1.48;;;0.93;;
58842;SDS011;44614;54.356;10.100;2022-11-20T05:27:31;3.17;;;1.45;;
58842;SDS011;44614;54.356;10.100;2022-11-20T05:29:56;2.77;;;1.40;;
58842;SDS011;44614;54.356;10.100;2022-11-20T05:32:21;2.17;;;1.30;;
58842;SDS011;44614;54.356;10.100;2022-11-20T05:34:50;2.17;;;1.33;;
58842;SDS011;44614;54.356;10.100;2022-11-20T05:37:15;3.63;;;2.00;;
58842;SDS011;44614;54.356;10.100;2022-11-20T05:39:41;3.03;;;1.77;;
58842;SDS011;44614;54.356;10.100;2022-11-20T05:42:06;4.50;;;1.93;;
58842;SDS011;44614;54.356;10.100;2022-11-20T05:45:03;2.50;;;1.80;;
58842;SDS011;44614;54.356;10.100;2022-11-20T05:47:33;3.95;;;1.90;;
58842;SDS011;44614;54.356;10.100;2022-11-20T05:49:59;4.25;;;2.17;;
58842;SDS011;44614;54.356;10.100;2022-11-20T05:52:24;3.37;;;1.40;;
58842;SDS011;44614;54.356;10.100;2022-11-20T05:54:53;3.25;;;1.58;;
58842;SDS011;44614;54.356;10.100;2022-11-20T05:57:18;3.00;;;2.22;;
58842;SDS011;44614;54.356;10.100;2022-11-20T05:59:44;2.80;;;1.77;;
58842;SDS011;44614;54.356;10.100;2022-11-20T06:02:09;3.57;;;1.60;;
58842;SDS011;44614;54.356;10.100;2022-11-20T06:04:34;2.93;;;2.17;;
58842;SDS011;44614;54.356;10.100;2022-11-20T06:06:59;3.45;;;1.52;;
58842;SDS011;44614;54.356;10.100;2022-11-20T06:09:25;3.57;;;2.10;;
58842;SDS011;44614;54.356;10.100;2022-11-20T06:11:50;2.97;;;2.13;;
58842;SDS011;44614;54.356;10.100;2022-11-20T06:14:15;4.63;;;2.63;;
58842;SDS011;44614;54.356;10.100;2022-11-20T06:16:41;2.63;;;1.77;;
58842;SDS011;44614;54.356;10.100;2022-11-20T06:19:06;4.35;;;2.53;;
58842;SDS011;44614;54.356;10.100;2022-11-20T06:21:31;4.07;;;2.37;;
58842;SDS011;44614;54.356;10.100;2022-11-20T06:23:56;5.45;;;2.03;;
58842;SDS011;44614;54.356;10.100;2022-11-20T06:26:23;3.83;;;2.28;;
58842;SDS011;44614;54.356;10.100;2022-11-20T06:28:50;4.70;;;2.67;;
58842;SDS011;44614;54.356;10.100;2022-11-20T06:31:17;4.55;;;2.35;;
58842;SDS011;44614;54.356;10.100;2022-11-20T06:33:44;5.10;;;2.70;;
58842;SDS011;44614;54.356;10.100;2022-11-20T06:36:11;5.82;;;2.95;;
58842;SDS011;44614;54.356;10.100;2022-11-20T06:38:38;5.05;;;2.72;;
58842;SDS011;44614;54.356;10.100;2022-11-20T06:41:04;5.33;;;2.50;;
58842;SDS011;44614;54.356;10.100;2022-11-20T06:43:31;4.93;;;2.70;;
58842;SDS011;44614;54.356;10.100;2022-11-20T06:45:57;4.93;;;2.60;;
58842;SDS011;44614;54.356;10.100;2022-11-20T06:48:23;5.57;;;2.83;;
58842;SDS011;44614;54.356;10.100;2022-11-20T06:53:16;4.70;;;2.93;;
58842;SDS011;44614;54.356;10.100;2022-11-20T06:55:44;5.20;;;2.85;;
58842;SDS011;44614;54.356;10.100;2022-11-20T06:58:11;10.95;;;3.10;;
58842;SDS011;44614;54.356;10.100;2022-11-20T07:00:38;3.85;;;2.03;;
58842;SDS011;44614;54.356;10.100;2022-11-20T07:03:03;2.55;;;1.75;;
58842;SDS011;44614;54.356;10.100;2022-11-20T07:05:29;4.30;;;2.10;;
58842;SDS011;44614;54.356;10.100;2022-11-20T07:07:57;4.23;;;1.60;;
58842;SDS011;44614;54.356;10.100;2022-11-20T07:10:23;3.28;;;1.98;;
58842;SDS011;44614;54.356;10.100;2022-11-20T07:12:49;1.95;;;1.30;;
58842;SDS011;44614;54.356;10.100;2022-11-20T07:15:15;1.70;;;1.10;;
58842;SDS011;44614;54.356;10.100;2022-11-20T07:17:41;3.05;;;1.30;;
58842;SDS011;44614;54.356;10.100;2022-11-20T07:20:06;2.67;;;1.47;;
58842;SDS011;44614;54.356;10.100;2022-11-20T07:22:32;3.10;;;1.80;;
58842;SDS011;44614;54.356;10.100;2022-11-20T07:24:57;2.53;;;1.60;;
58842;SDS011;44614;54.356;10.100;2022-11-20T07:27:22;2.97;;;1.87;;
58842;SDS011;44614;54.356;10.100;2022-11-20T07:29:48;1.70;;;1.37;;
58842;SDS011;44614;54.356;10.100;2022-11-20T07:32:13;1.10;;;0.77;;
58842;SDS011;44614;54.356;10.100;2022-11-20T07:34:38;0.93;;;0.73;;
58842;SDS011;44614;54.356;10.100;2022-11-20T07:37:04;1.27;;;0.85;;
58842;SDS011;44614;54.356;10.100;2022-11-20T07:39:29;1.92;;;0.70;;
58842;SDS011;44614;54.356;10.100;2022-11-20T07:41:54;1.80;;;0.95;;
58842;SDS011;44614;54.356;10.100;2022-11-20T07:44:19;0.73;;;0.67;;
58842;SDS011;44614;54.356;10.100;2022-11-20T07:46:45;1.20;;;0.80;;
58842;SDS011;44614;54.356;10.100;2022-11-20T07:49:10;0.80;;;0.80;;
58842;SDS011;44614;54.356;10.100;2022-11-20T07:51:35;1.65;;;0.80;;
58842;SDS011;44614;54.356;10.100;2022-11-20T07:54:01;2.20;;;0.60;;
58842;SDS011;44614;54.356;10.100;2022-11-20T07:56:26;0.95;;;0.40;;
58842;SDS011;44614;54.356;10.100;2022-11-20T07:58:51;0.93;;;0.60;;
58842;SDS011;44614;54.356;10.100;2022-11-20T08:01:17;0.60;;;0.60;;
58842;SDS011;44614;54.356;10.100;2022-11-20T08:03:42;0.80;;;0.60;;
58842;SDS011;44614;54.356;10.100;2022-11-20T08:06:07;2.50;;;0.98;;
58842;SDS011;44614;54.356;10.100;2022-11-20T08:08:33;0.75;;;0.75;;
58842;SDS011;44614;54.356;10.100;2022-11-20T08:10:59;2.20;;;1.00;;
58842;SDS011;44614;54.356;10.100;2022-11-20T08:13:43;1.65;;;0.70;;
58842;SDS011;44614;54.356;10.100;2022-11-20T08:16:27;0.65;;;0.60;;
58842;SDS011;44614;54.356;10.100;2022-11-20T08:18:53;3.55;;;0.70;;
58842;SDS011;44614;54.356;10.100;2022-11-20T08:21:18;0.80;;;0.70;;
58842;SDS011;44614;54.356;10.100;2022-11-20T08:23:44;0.65;;;0.65;;
58842;SDS011;44614;54.356;10.100;2022-11-20T08:26:09;1.57;;;1.10;;
58842;SDS011;44614;54.356;10.100;2022-11-20T08:28:34;1.52;;;0.60;;
58842;SDS011;44614;54.356;10.100;2022-11-20T08:31:00;1.48;;;0.73;;
58842;SDS011;44614;54.356;10.100;2022-11-20T08:33:27;1.70;;;0.40;;
58842;SDS011;44614;54.356;10.100;2022-11-20T08:35:52;2.22;;;0.75;;
58842;SDS011;44614;54.356;10.100;2022-11-20T08:38:18;1.92;;;0.77;;
58842;SDS011;44614;54.356;10.100;2022-11-20T08:40:43;1.33;;;0.70;;
58842;SDS011;44614;54.356;10.100;2022-11-20T08:43:31;1.00;;;0.70;;
58842;SDS011;44614;54.356;10.100;2022-11-20T08:45:57;0.98;;;0.90;;
58842;SDS011;44614;54.356;10.100;2022-11-20T08:48:22;1.33;;;0.85;;
58842;SDS011;44614;54.356;10.100;2022-11-20T08:50:47;1.10;;;0.90;;
58842;SDS011;44614;54.356;10.100;2022-11-20T08:53:13;1.80;;;1.10;;
58842;SDS011;44614;54.356;10.100;2022-11-20T08:55:38;2.78;;;1.25;;
58842;SDS011;44614;54.356;10.100;2022-11-20T08:58:04;1.60;;;1.00;;
58842;SDS011;44614;54.356;10.100;2022-11-20T09:00:30;3.58;;;1.70;;
58842;SDS011;44614;54.356;10.100;2022-11-20T09:02:55;2.97;;;1.40;;
58842;SDS011;44614;54.356;10.100;2022-11-20T09:05:21;1.80;;;1.30;;
58842;SDS011;44614;54.356;10.100;2022-11-20T09:07:46;4.93;;;2.30;;
58842;SDS011;44614;54.356;10.100;2022-11-20T09:10:11;5.13;;;2.50;;
58842;SDS011;44614;54.356;10.100;2022-11-20T09:12:37;5.70;;;2.70;;
58842;SDS011;44614;54.356;10.100;2022-11-20T09:15:02;6.57;;;2.60;;
58842;SDS011;44614;54.356;10.100;2022-11-20T09:17:27;5.85;;;3.10;;
58842;SDS011;44614;54.356;10.100;2022-11-20T09:19:53;5.87;;;2.73;;
58842;SDS011;44614;54.356;10.100;2022-11-20T09:22:18;3.35;;;1.80;;
58842;SDS011;44614;54.356;10.100;2022-11-20T09:24:43;3.77;;;1.80;;
58842;SDS011;44614;54.356;10.100;2022-11-20T09:27:09;2.10;;;1.40;;
58842;SDS011;44614;54.356;10.100;2022-11-20T09:29:34;2.70;;;1.48;;
58842;SDS011;44614;54.356;10.100;2022-11-20T09:32:00;3.13;;;1.58;;
58842;SDS011;44614;54.356;10.100;2022-11-20T09:34:25;1.83;;;1.40;;
58842;SDS011;44614;54.356;10.100;2022-11-20T09:36:50;2.10;;;1.40;;
58842;SDS011;44614;54.356;10.100;2022-11-20T09:39:16;4.63;;;2.05;;
58842;SDS011;44614;54.356;10.100;2022-11-20T09:44:40;6.90;;;3.58;;
58842;SDS011;44614;54.356;10.100;2022-11-20T09:47:30;3.47;;;1.90;;
58842;SDS011;44614;54.356;10.100;2022-11-20T09:50:31;3.60;;;1.95;;
58842;SDS011;44614;54.356;10.100;2022-11-20T09:53:08;3.88;;;2.00;;
58842;SDS011;44614;54.356;10.100;2022-11-20T09:55:38;2.00;;;1.53;;
58842;SDS011;44614;54.356;10.100;2022-11-20T09:58:07;5.85;;;2.03;;
58842;SDS011;44614;54.356;10.100;2022-11-20T10:00:41;3.88;;;1.75;;
58842;SDS011;44614;54.356;10.100;2022-11-20T10:03:21;6.25;;;2.63;;
58842;SDS011;44614;54.356;10.100;2022-11-20T10:06:17;4.07;;;2.03;;
58842;SDS011;44614;54.356;10.100;2022-11-20T10:09:00;3.58;;;2.42;;
58842;SDS011;44614;54.356;10.100;2022-11-20T10:14:16;3.78;;;2.20;;
58842;SDS011;44614;54.356;10.100;2022-11-20T10:17:13;3.25;;;2.03;;
58842;SDS011;44614;54.356;10.100;2022-11-20T10:25:42;3.72;;;1.67;;
58842;SDS011;44614;54.356;10.100;2022-11-20T10:28:26;3.55;;;2.17;;
58842;SDS011;44614;54.356;10.100;2022-11-20T10:31:13;3.72;;;2.30;;
58842;SDS011;44614;54.356;10.100;2022-11-20T10:33:49;3.03;;;1.67;;
58842;SDS011;44614;54.356;10.100;2022-11-20T10:36:38;3.83;;;2.03;;
58842;SDS011;44614;54.356;10.100;2022-11-20T10:42:04;3.70;;;1.67;;
58842;SDS011;44614;54.356;10.100;2022-11-20T10:44:36;4.53;;;1.95;;
58842;SDS011;44614;54.356;10.100;2022-11-20T10:47:20;3.72;;;1.90;;
58842;SDS011;44614;54.356;10.100;2022-11-20T10:49:48;3.15;;;1.52;;
58842;SDS011;44614;54.356;10.100;2022-11-20T10:55:04;1.85;;;1.35;;
58842;SDS011;44614;54.356;10.100;2022-11-20T11:00:00;2.90;;;1.65;;
58842;SDS011;44614;54.356;10.100;2022-11-20T11:02:31;2.55;;;1.88;;
58842;SDS011;44614;54.356;10.100;2022-11-20T11:05:08;4.57;;;1.58;;
58842;SDS011;44614;54.356;10.100;2022-11-20T11:07:55;5.18;;;1.80;;
58842;SDS011;44614;54.356;10.100;2022-11-20T11:10:26;3.00;;;1.70;;
58842;SDS011;44614;54.356;10.100;2022-11-20T11:12:59;4.30;;;1.93;;
58842;SDS011;44614;54.356;10.100;2022-11-20T11:15:26;4.95;;;1.77;;
58842;SDS011;44614;54.356;10.100;2022-11-20T11:17:54;5.93;;;2.90;;
58842;SDS011;44614;54.356;10.100;2022-11-20T11:20:20;7.97;;;3.05;;
58842;SDS011;44614;54.356;10.100;2022-11-20T11:22:54;6.35;;;2.60;;
58842;SDS011;44614;54.356;10.100;2022-11-20T11:25:23;4.10;;;2.58;;
58842;SDS011;44614;54.356;10.100;2022-11-20T11:27:52;3.03;;;1.88;;
58842;SDS011;44614;54.356;10.100;2022-11-20T11:30:20;2.10;;;1.83;;
58842;SDS011;44614;54.356;10.100;2022-11-20T11:32:46;2.53;;;1.30;;
58842;SDS011;44614;54.356;10.100;2022-11-20T11:35:22;1.58;;;1.40;;
58842;SDS011;44614;54.356;10.100;2022-11-20T11:37:50;3.80;;;1.80;;
58842;SDS011;44614;54.356;10.100;2022-11-20T11:40:19;2.78;;;1.70;;
58842;SDS011;44614;54.356;10.100;2022-11-20T11:42:46;2.22;;;1.30;;
58842;SDS011;44614;54.356;10.100;2022-11-20T11:45:17;4.63;;;1.65;;
58842;SDS011;44614;54.356;10.100;2022-11-20T11:52:33;4.20;;;1.47;;
58842;SDS011;44614;54.356;10.100;2022-11-20T11:55:07;4.70;;;1.73;;
58842;SDS011;44614;54.356;10.100;2022-11-20T11:57:43;3.78;;;1.88;;
58842;SDS011;44614;54.356;10.100;2022-11-20T12:02:49;2.40;;;1.17;;
58842;SDS011;44614;54.356;10.100;2022-11-20T12:05:26;2.10;;;1.27;;
58842;SDS011;44614;54.356;10.100;2022-11-20T12:10:57;4.35;;;2.47;;
58842;SDS011;44614;54.356;10.100;2022-11-20T12:16:19;3.20;;;1.70;;
58842;SDS011;44614;54.356;10.100;2022-11-20T12:18:46;2.00;;;1.05;;
58842;SDS011;44614;54.356;10.100;2022-11-20T12:21:18;2.17;;;1.40;;
58842;SDS011;44614;54.356;10.100;2022-11-20T12:27:02;2.45;;;1.23;;
58842;SDS011;44614;54.356;10.100;2022-11-20T12:49:01;3.97;;;1.42;;
58842;SDS011;44614;54.356;10.100;2022-11-20T12:54:00;2.47;;;1.50;;
58842;SDS011;44614;54.356;10.100;2022-11-20T12:59:27;3.10;;;1.13;;
58842;SDS011;44614;54.356;10.100;2022-11-20T13:07:27;2.53;;;0.90;;
58842;SDS011;44614;54.356;10.100;2022-11-20T13:09:54;2.03;;;0.90;;
58842;SDS011;44614;54.356;10.100;2022-11-20T13:17:46;2.33;;;1.13;;
58842;SDS011;44614;54.356;10.100;2022-11-20T13:20:19;1.77;;;0.98;;
58842;SDS011;44614;54.356;10.100;2022-11-20T13:22:54;1.25;;;0.70;;
58842;SDS011;44614;54.356;10.100;2022-11-20T13:26:01;1.38;;;1.20;;
58842;SDS011;44614;54.356;10.100;2022-11-20T13:30:50;2.07;;;1.00;;
58842;SDS011;44614;54.356;10.100;2022-11-20T13:33:33;0.57;;;0.50;;
58842;SDS011;44614;54.356;10.100;2022-11-20T13:36:02;1.58;;;0.80;;
58842;SDS011;44614;54.356;10.100;2022-11-20T13:38:47;2.13;;;0.93;;
58842;SDS011;44614;54.356;10.100;2022-11-20T13:41:53;0.85;;;0.77;;
58842;SDS011;44614;54.356;10.100;2022-11-20T13:44:23;1.85;;;0.82;;
58842;SDS011;44614;54.356;10.100;2022-11-20T13:46:53;1.05;;;0.93;;
58842;SDS011;44614;54.356;10.100;2022-11-20T13:49:37;1.83;;;0.85;;
58842;SDS011;44614;54.356;10.100;2022-11-20T14:00:15;2.20;;;0.80;;
58842;SDS011;44614;54.356;10.100;2022-11-20T14:02:43;1.38;;;1.23;;
58842;SDS011;44614;54.356;10.100;2022-11-20T14:05:17;1.75;;;0.88;;
58842;SDS011;44614;54.356;10.100;2022-11-20T14:07:46;1.38;;;0.90;;
58842;SDS011;44614;54.356;10.100;2022-11-20T14:10:28;1.02;;;0.85;;
58842;SDS011;44614;54.356;10.100;2022-11-20T14:12:54;1.75;;;0.73;;
58842;SDS011;44614;54.356;10.100;2022-11-20T14:15:24;1.42;;;0.70;;
58842;SDS011;44614;54.356;10.100;2022-11-20T14:17:50;1.70;;;0.90;;
58842;SDS011;44614;54.356;10.100;2022-11-20T14:20:15;0.93;;;0.88;;
58842;SDS011;44614;54.356;10.100;2022-11-20T14:22:50;6.45;;;1.30;;
58842;SDS011;44614;54.356;10.100;2022-11-20T14:27:42;2.88;;;2.05;;
58842;SDS011;44614;54.356;10.100;2022-11-20T14:30:12;6.70;;;2.50;;
58842;SDS011;44614;54.356;10.100;2022-11-20T14:32:39;4.10;;;2.78;;
58842;SDS011;44614;54.356;10.100;2022-11-20T14:35:07;5.75;;;2.65;;
58842;SDS011;44614;54.356;10.100;2022-11-20T14:37:38;8.43;;;3.85;;
58842;SDS011;44614;54.356;10.100;2022-11-20T14:40:20;5.68;;;3.03;;
58842;SDS011;44614;54.356;10.100;2022-11-20T14:42:48;8.95;;;4.43;;
58842;SDS011;44614;54.356;10.100;2022-11-20T14:45:14;10.40;;;4.00;;
58842;SDS011;44614;54.356;10.100;2022-11-20T14:47:41;6.82;;;3.03;;
58842;SDS011;44614;54.356;10.100;2022-11-20T14:50:12;5.07;;;2.47;;
58842;SDS011;44614;54.356;10.100;2022-11-20T14:55:28;4.85;;;2.85;;
58842;SDS011;44614;54.356;10.100;2022-11-20T14:57:59;4.80;;;2.17;;
58842;SDS011;44614;54.356;10.100;2022-11-20T15:00:32;2.38;;;1.75;;
58842;SDS011;44614;54.356;10.100;2022-11-20T15:02:58;3.03;;;2.40;;
58842;SDS011;44614;54.356;10.100;2022-11-20T15:05:25;5.47;;;1.55;;
58842;SDS011;44614;54.356;10.100;2022-11-20T15:08:10;5.25;;;2.13;;
58842;SDS011;44614;54.356;10.100;2022-11-20T15:10:35;4.18;;;1.67;;
58842;SDS011;44614;54.356;10.100;2022-11-20T15:13:03;3.30;;;1.73;;
58842;SDS011;44614;54.356;10.100;2022-11-20T15:15:32;7.85;;;2.67;;
58842;SDS011;44614;54.356;10.100;2022-11-20T15:18:01;5.80;;;2.63;;
58842;SDS011;44614;54.356;10.100;2022-11-20T15:20:28;5.93;;;2.83;;
58842;SDS011;44614;54.356;10.100;2022-11-20T15:22:56;7.72;;;2.95;;
58842;SDS011;44614;54.356;10.100;2022-11-20T15:25:21;8.10;;;3.35;;
58842;SDS011;44614;54.356;10.100;2022-11-20T15:27:50;10.55;;;4.35;;
58842;SDS011;44614;54.356;10.100;2022-11-20T15:30:20;13.30;;;4.88;;
58842;SDS011;44614;54.356;10.100;2022-11-20T15:32:46;8.52;;;4.32;;
58842;SDS011;44614;54.356;10.100;2022-11-20T15:35:12;17.27;;;7.50;;
58842;SDS011;44614;54.356;10.100;2022-11-20T15:37:38;9.00;;;4.75;;
58842;SDS011;44614;54.356;10.100;2022-11-20T15:40:04;10.25;;;5.95;;
58842;SDS011;44614;54.356;10.100;2022-11-20T15:42:32;8.70;;;4.90;;
58842;SDS011;44614;54.356;10.100;2022-11-20T15:44:58;6.75;;;3.88;;
58842;SDS011;44614;54.356;10.100;2022-11-20T15:47:30;8.55;;;4.47;;
58842;SDS011;44614;54.356;10.100;2022-11-20T15:49:59;15.60;;;7.78;;
58842;SDS011;44614;54.356;10.100;2022-11-20T15:52:25;18.58;;;8.48;;
58842;SDS011;44614;54.356;10.100;2022-11-20T15:54:50;12.55;;;4.93;;
58842;SDS011;44614;54.356;10.100;2022-11-20T15:57:16;5.43;;;3.35;;
58842;SDS011;44614;54.356;10.100;2022-11-20T15:59:41;8.57;;;2.88;;
58842;SDS011;44614;54.356;10.100;2022-11-20T16:02:16;3.80;;;2.42;;
58842;SDS011;44614;54.356;10.100;2022-11-20T16:04:41;5.93;;;2.17;;
58842;SDS011;44614;54.356;10.100;2022-11-20T16:07:07;4.32;;;3.00;;
58842;SDS011;44614;54.356;10.100;2022-11-20T16:09:33;8.25;;;3.35;;
58842;SDS011;44614;54.356;10.100;2022-11-20T16:11:58;5.60;;;2.47;;
58842;SDS011;44614;54.356;10.100;2022-11-20T16:14:25;6.22;;;3.15;;
58842;SDS011;44614;54.356;10.100;2022-11-20T16:17:10;9.05;;;3.50;;
58842;SDS011;44614;54.356;10.100;2022-11-20T16:19:35;7.93;;;3.55;;
58842;SDS011;44614;54.356;10.100;2022-11-20T16:22:01;6.82;;;3.40;;
58842;SDS011;44614;54.356;10.100;2022-11-20T16:24:26;6.22;;;3.50;;
58842;SDS011;44614;54.356;10.100;2022-11-20T16:26:55;7.13;;;3.57;;